Архив погоды на Мудьюге Острове

Метеограмма Мудьюг Остров
Пятница, 22 Июня
Время местн. Темп Ветер Видим Явления Облачность нижн/средн/верх Атм. давл. Влжн Точка росы ВНГО R Сост. почвы Tg s
Напр Скр Прв ур.ст ур.м изм
15:00 +19.6° Ю-В 6 - 20 км - облачно 754 754 -0.8 50% +9° более 2.5 км - - - -
12:00 +20.3° Ю-В 5 - 20 км - облачно с прояснениями 755 755 -0.2 47% +8.7° более 2.5 км - - - -
09:00 +16.4° Ю 3 - 20 км - облачно с прояснениями 755 755 0 68% +10.4° более 2.5 км - - - -
06:00 +13.3° Ю-В 2 - 20 км - ясно 755 755 +0.9 76% +9.1° более 2.5 км - Сухая (без трещин) - -
03:00 +13.8° Ю-З 3 - 20 км - ясно 754 754 +0.5 72% +8.9° более 2.5 км - - - -
00:00 +13.7° Ю-З 3 - 20 км - незначительная облачность 754 754 +0.9 73% +9° более 2.5 км - - - -
Четверг, 21 Июня
Время местн. Темп Ветер Видим Явления Облачность нижн/средн/верх Атм. давл. Влжн Точка росы ВНГО R Сост. почвы Tg s
Напр Скр Прв ур.ст ур.м изм
21:00 +13.8° З 2 - 20 км - незначительная облачность 753 753 +1.1 72% +8.8° более 2.5 км - - - -
18:00 +14.6° С-З 4 - 20 км - облачно с прояснениями 752 752 +1.4 63% +7.6° - - - - -
15:00 +13.9° З,С-З 8 11 20 км - преимущественно облачно 750 751 +2 69% +8.3° 1.5 км - - - -
12:00 +12.4° З,С-З 10 13 20 км - облачно 748 749 +2.1 80% +9° 600 м - - - -
09:00 +11.8° З,С-З 9 12 4 км дымка облачно 746 746 +1.5 91% +10.3° 300 м - - - -
06:00 +12.3° З,С-З 9 12 10 км - облачно 745 745 +0.8 88% +10.4° 600 м - Сухая (без трещин) - -
03:00 +13° З,С-З 10 14 20 км - облачно 744 744 +0.4 86% +10.7° 600 м - - - -
00:00 +13.5° З,С-З 7 10 20 км - облачно 743 744 +0.5 89% +11.8° 600 м - - - -
Среда, 20 Июня
Время местн. Темп Ветер Видим Явления Облачность нижн/средн/верх Атм. давл. Влжн Точка росы ВНГО R Сост. почвы Tg s
Напр Скр Прв ур.ст ур.м изм
21:00 +14.1° З,С-З 5 - 20 км - преимущественно облачно 743 743 +0.5 85% +11.6° 600 м - - - -
18:00 +14.7° З,С-З 5 - 20 км - облачно 743 743 +0.5 78% +11° 1.5 км 0 - - -
15:00 +15.2° З 5 - 20 км осадки вдали станции преимущественно облачно 742 742 +0.5 77% +11.2° 1 км - - - -
12:00 +15.1° Ю-З 3 - 20 км - облачно 741 742 -0.1 80% +11.6° 1.5 км - - - -
09:00 +15.5° Ю 2 - 20 км - преимущественно облачно 742 742 -1.1 76% +11.2° 1.5 км - - - -
06:00 +13.6° Ю 4 - 20 км - облачно 743 743 -1.4 84% +10.9° более 2.5 км 3 Влажная (без луж) +12° -
03:00 +13.9° Ю 4 - 20 км небо без изменений {ливневые осадки} облачно 744 744 -1.7 88% +12° - - - - -
00:00 +13.7° Ю-В 6 - 20 км - облачно 746 746 -1.5 91% +12.3° 1.5 км - - - -
Вторник, 19 Июня
Время местн. Темп Ветер Видим Явления Облачность нижн/средн/верх Атм. давл. Влжн Точка росы ВНГО R Сост. почвы Tg s
Напр Скр Прв ур.ст ур.м изм
21:00 +15.3° В,Ю-В 7 - 10 км ливневый дождь {гроза} облачно 747 748 -2.3 85% +12.8° 1 км - - - -
18:00 +16.2° Ю-В 3 - 20 км гроза без осадков {ливневые осадки} облачно с прояснениями 750 750 -2.1 93% +15° 1.5 км - - - -
15:00 +16.8° Ю-В 6 - 4 км гроза в последний час, слабый дождь {ливневые осадки} облачно 752 752 -1.6 91% +15.3° 1 км - - - -
12:00 +16.5° Ю-З 1 - 4 км слабая или умеренная гроза с осадками облачно 753 754 -0.7 90% +14.9° 1 км - - - -